createdAt,value
2022-11-30T00:00:45.730Z,74.10
2022-11-30T00:03:52.912Z,76.00
2022-11-30T00:07:00.461Z,75.50
2022-11-30T00:10:07.611Z,67.20
2022-11-30T00:13:14.704Z,70.80
2022-11-30T00:16:22.141Z,66.50
2022-11-30T00:19:28.933Z,64.10
2022-11-30T00:22:35.776Z,68.40
2022-11-30T00:25:43.393Z,69.50
2022-11-30T00:28:51.086Z,71.30
2022-11-30T00:31:58.154Z,74.30
2022-11-30T00:35:05.597Z,72.20
2022-11-30T00:38:12.597Z,69.20
2022-11-30T00:41:19.611Z,67.10
2022-11-30T00:44:27.047Z,64.60
2022-11-30T00:47:34.215Z,68.70
2022-11-30T00:50:41.331Z,62.90
2022-11-30T00:53:48.542Z,64.70
2022-11-30T00:56:56.033Z,67.60
2022-11-30T01:00:03.169Z,71.20
2022-11-30T01:03:10.333Z,63.00
2022-11-30T01:06:17.779Z,65.80
2022-11-30T01:09:24.950Z,66.20
2022-11-30T01:12:31.952Z,70.40
2022-11-30T01:15:39.530Z,68.70
2022-11-30T01:18:46.711Z,82.40
2022-11-30T01:21:53.862Z,78.60
2022-11-30T01:25:01.014Z,79.30
2022-11-30T01:28:07.813Z,85.70
2022-11-30T01:31:15.434Z,82.50
2022-11-30T01:34:22.563Z,86.40
2022-11-30T01:37:29.668Z,84.30
2022-11-30T01:40:36.974Z,85.50
2022-11-30T01:43:43.625Z,82.70
2022-11-30T01:46:51.096Z,77.30
2022-11-30T01:49:58.165Z,73.70
2022-11-30T01:53:04.654Z,76.60
2022-11-30T01:56:11.861Z,81.00
2022-11-30T01:59:19.947Z,79.50
2022-11-30T02:02:26.414Z,72.90
2022-11-30T02:05:33.518Z,72.20
2022-11-30T02:08:40.341Z,79.70
2022-11-30T02:11:46.953Z,78.30
2022-11-30T02:14:54.204Z,75.40
2022-11-30T02:18:01.171Z,69.70
2022-11-30T02:21:07.662Z,76.50
2022-11-30T02:24:14.235Z,81.70
2022-11-30T02:27:21.522Z,87.50
2022-11-30T02:30:28.354Z,77.50
2022-11-30T02:33:35.061Z,83.70
2022-11-30T02:36:42.215Z,82.80
2022-11-30T02:39:48.936Z,78.60
2022-11-30T02:42:55.770Z,88.70
2022-11-30T02:46:03.090Z,79.00
2022-11-30T02:49:09.524Z,77.00
2022-11-30T02:52:16.645Z,75.00
2022-11-30T02:55:23.788Z,79.70
2022-11-30T02:58:30.206Z,75.90
2022-11-30T03:01:37.529Z,83.30
2022-11-30T03:04:44.740Z,79.00
2022-11-30T03:07:51.364Z,81.10
2022-11-30T03:10:58.439Z,88.90
2022-11-30T03:14:05.159Z,86.60
2022-11-30T03:17:11.960Z,86.70
2022-11-30T03:20:18.719Z,85.80
2022-11-30T03:23:25.442Z,84.70
2022-11-30T03:26:32.287Z,86.20
2022-11-30T03:29:38.992Z,84.70
2022-11-30T03:32:46.132Z,90.50
2022-11-30T03:35:52.823Z,94.70
2022-11-30T03:38:59.614Z,86.70
2022-11-30T03:42:06.484Z,84.60
2022-11-30T03:45:13.164Z,89.90
2022-11-30T03:48:19.856Z,86.50
2022-11-30T03:51:26.651Z,92.10
2022-11-30T03:54:33.414Z,94.00
2022-11-30T03:57:40.585Z,84.80
2022-11-30T04:00:47.385Z,85.60
2022-11-30T04:03:54.186Z,91.80
2022-11-30T04:07:01.297Z,92.00
2022-11-30T04:10:08.798Z,77.70
2022-11-30T04:13:15.638Z,85.90
2022-11-30T04:16:22.813Z,87.00
2022-11-30T04:19:29.178Z,84.40
2022-11-30T04:22:36.299Z,85.40
2022-11-30T04:25:43.410Z,84.00
2022-11-30T04:28:49.841Z,81.60
2022-11-30T04:31:56.570Z,87.50
2022-11-30T04:35:03.412Z,88.90
2022-11-30T04:38:10.122Z,83.10
2022-11-30T04:41:17.372Z,90.90
2022-11-30T04:44:24.192Z,84.20
2022-11-30T04:47:31.073Z,94.10
2022-11-30T04:50:37.729Z,84.70
2022-11-30T04:53:44.874Z,93.00
2022-11-30T04:56:51.804Z,88.70
2022-11-30T04:59:58.604Z,94.90
2022-11-30T05:03:05.456Z,97.80
2022-11-30T05:06:12.425Z,98.70
2022-11-30T05:09:19.267Z,88.20
2022-11-30T05:12:25.815Z,95.90
2022-11-30T05:15:32.257Z,91.00
2022-11-30T05:18:39.581Z,102.20
2022-11-30T05:21:46.488Z,108.40
2022-11-30T05:24:53.377Z,96.40
2022-11-30T05:28:00.668Z,101.20
2022-11-30T05:31:07.274Z,101.60
2022-11-30T05:34:14.489Z,97.20
2022-11-30T05:37:21.599Z,99.90
2022-11-30T05:40:28.120Z,113.90
2022-11-30T05:43:35.452Z,105.10
2022-11-30T05:46:42.500Z,107.80
2022-11-30T05:49:49.324Z,117.80
2022-11-30T05:52:56.695Z,118.90
2022-11-30T05:56:03.573Z,108.40
2022-11-30T05:59:10.453Z,120.60
2022-11-30T06:02:17.073Z,119.90
2022-11-30T06:05:24.274Z,126.90
2022-11-30T06:08:31.254Z,119.50
2022-11-30T06:11:38.165Z,122.50
2022-11-30T06:14:45.572Z,128.30
2022-11-30T06:17:52.239Z,118.80
2022-11-30T06:20:59.247Z,119.90
2022-11-30T06:24:06.336Z,122.80
2022-11-30T06:27:12.828Z,117.90
2022-11-30T06:30:20.200Z,110.20
2022-11-30T06:33:27.025Z,107.80
2022-11-30T06:36:36.237Z,109.40
2022-11-30T06:40:05.393Z,108.40
2022-11-30T06:42:47.820Z,108.70
2022-11-30T06:45:54.838Z,112.80
2022-11-30T06:49:02.149Z,113.30
2022-11-30T06:52:09.083Z,119.70
2022-11-30T06:55:16.234Z,122.00
2022-11-30T06:58:24.230Z,121.20
2022-11-30T07:01:31.677Z,124.30
2022-11-30T07:04:38.964Z,124.80
2022-11-30T07:07:46.287Z,130.70
2022-11-30T07:10:54.005Z,127.10
2022-11-30T07:14:01.375Z,129.50
2022-11-30T07:17:08.636Z,145.90
2022-11-30T07:20:16.155Z,147.10
2022-11-30T07:23:23.413Z,131.60
2022-11-30T07:26:30.806Z,143.00
2022-11-30T07:29:38.215Z,135.60
2022-11-30T07:32:45.167Z,140.90
2022-11-30T07:35:52.995Z,142.10
2022-11-30T07:39:00.637Z,138.70
2022-11-30T07:42:07.629Z,143.90
2022-11-30T07:45:15.468Z,142.80
2022-11-30T07:48:22.820Z,137.00
2022-11-30T07:51:29.769Z,148.50
2022-11-30T07:54:37.112Z,140.30
2022-11-30T07:57:43.975Z,128.20
2022-11-30T08:00:51.009Z,135.80
2022-11-30T08:03:58.232Z,128.70
2022-11-30T08:07:05.106Z,125.90
2022-11-30T08:10:12.382Z,126.90
2022-11-30T08:13:19.203Z,119.80
2022-11-30T08:16:26.061Z,115.20
2022-11-30T08:19:32.506Z,120.90
2022-11-30T08:22:39.185Z,121.70
2022-11-30T08:25:46.324Z,127.20
2022-11-30T08:28:53.144Z,135.50
2022-11-30T08:31:59.841Z,149.30
2022-11-30T08:35:06.759Z,160.20
2022-11-30T08:38:13.529Z,162.90
2022-11-30T08:41:20.339Z,169.50
2022-11-30T08:44:27.498Z,163.00
2022-11-30T08:47:33.980Z,167.60
2022-11-30T08:50:41.180Z,162.50
2022-11-30T08:53:48.389Z,151.50
2022-11-30T08:56:54.751Z,153.70
2022-11-30T09:00:02.172Z,165.60
2022-11-30T09:03:09.202Z,160.70
2022-11-30T09:06:15.684Z,162.00
2022-11-30T09:09:22.593Z,195.90
2022-11-30T09:12:29.423Z,163.60
2022-11-30T09:15:36.336Z,171.60
2022-11-30T09:18:43.432Z,150.70
2022-11-30T09:21:52.291Z,172.70
2022-11-30T09:24:59.541Z,167.20
2022-11-30T09:28:10.869Z,178.80
2022-11-30T09:31:08.423Z,181.20
2022-11-30T09:34:15.307Z,157.70
2022-11-30T09:37:22.428Z,163.70
2022-11-30T09:40:34.016Z,148.30
2022-11-30T09:43:31.728Z,157.70
2022-11-30T09:46:38.559Z,152.60
2022-11-30T09:49:45.889Z,142.70
2022-11-30T09:52:52.729Z,185.90
2022-11-30T09:55:59.450Z,152.50
2022-11-30T09:59:06.565Z,151.30
2022-11-30T10:02:13.475Z,141.70
2022-11-30T10:05:20.253Z,141.30
2022-11-30T10:08:26.833Z,121.20
2022-11-30T10:11:33.594Z,132.90
2022-11-30T10:14:40.725Z,160.20
2022-11-30T10:17:47.462Z,122.40
2022-11-30T10:20:54.294Z,121.50
2022-11-30T10:24:01.476Z,128.50
2022-11-30T10:27:07.955Z,113.60
2022-11-30T10:30:14.942Z,108.20
2022-11-30T10:33:22.008Z,103.00
2022-11-30T10:36:28.427Z,99.00
2022-11-30T10:39:35.208Z,96.70
2022-11-30T10:42:42.182Z,91.40
2022-11-30T10:45:48.588Z,90.90
2022-11-30T10:48:55.620Z,90.50
2022-11-30T10:52:02.319Z,96.10
2022-11-30T10:55:09.096Z,87.40
2022-11-30T10:58:16.109Z,85.00
2022-11-30T11:01:22.843Z,85.10
2022-11-30T11:04:29.643Z,86.30
2022-11-30T11:07:36.415Z,87.50
2022-11-30T11:10:43.413Z,101.00
2022-11-30T11:13:50.194Z,100.60
2022-11-30T11:16:56.952Z,92.40
2022-11-30T11:20:03.943Z,92.60
2022-11-30T11:23:10.989Z,99.30
2022-11-30T11:26:17.873Z,96.30
2022-11-30T11:29:24.845Z,103.50
2022-11-30T11:32:31.302Z,89.30
2022-11-30T11:35:38.376Z,97.20
2022-11-30T11:38:45.589Z,104.70
2022-11-30T11:41:51.988Z,93.10
2022-11-30T11:44:59.439Z,97.30
2022-11-30T11:48:06.367Z,98.60
2022-11-30T11:51:13.308Z,103.30
2022-11-30T11:54:20.380Z,97.20
2022-11-30T11:57:27.130Z,97.70
2022-11-30T12:00:34.041Z,109.20
2022-11-30T12:03:40.831Z,122.60
2022-11-30T12:06:47.613Z,111.70
2022-11-30T12:09:54.500Z,119.80
2022-11-30T12:13:01.362Z,111.10
2022-11-30T12:16:08.333Z,135.00
2022-11-30T12:19:15.204Z,119.40
2022-11-30T12:22:22.145Z,130.20
2022-11-30T12:25:28.983Z,137.40
2022-11-30T12:28:35.664Z,147.60
2022-11-30T12:31:42.700Z,147.80
2022-11-30T12:34:49.391Z,144.00
2022-11-30T12:37:56.214Z,142.60
2022-11-30T12:41:03.437Z,169.70
2022-11-30T12:44:10.108Z,165.70
2022-11-30T12:47:16.858Z,156.80
2022-11-30T12:50:23.998Z,179.90
2022-11-30T12:53:30.521Z,183.60
2022-11-30T12:56:40.253Z,190.30
2022-11-30T12:59:40.300Z,175.90
2022-11-30T13:02:46.881Z,185.10
2022-11-30T13:05:53.900Z,187.00
2022-11-30T13:09:00.650Z,190.50
2022-11-30T13:12:07.112Z,190.80
2022-11-30T13:15:15.947Z,185.80
2022-11-30T13:18:22.498Z,190.30
2022-11-30T13:21:29.794Z,194.90
2022-11-30T13:24:36.874Z,190.60
2022-11-30T13:27:43.360Z,170.90
2022-11-30T13:30:50.363Z,182.40
2022-11-30T13:33:57.385Z,159.00
2022-11-30T13:37:04.182Z,177.50
2022-11-30T13:40:11.297Z,173.60
2022-11-30T13:43:18.063Z,164.20
2022-11-30T13:46:24.922Z,157.20
2022-11-30T13:49:31.954Z,155.00
2022-11-30T13:52:38.848Z,149.50
2022-11-30T13:55:45.614Z,146.20
2022-11-30T13:58:52.778Z,141.70
2022-11-30T14:04:34.690Z,143.30
2022-11-30T14:07:41.470Z,142.70
2022-11-30T14:10:48.460Z,134.40
2022-11-30T14:13:55.211Z,127.70
2022-11-30T14:17:02.165Z,126.40
2022-11-30T14:20:09.281Z,117.80
2022-11-30T14:23:16.132Z,124.60
2022-11-30T14:26:22.912Z,116.60
2022-11-30T14:29:29.934Z,121.50
2022-11-30T14:32:36.433Z,122.90
2022-11-30T14:35:43.635Z,123.10
2022-11-30T14:38:50.929Z,119.00
2022-11-30T14:41:57.404Z,117.80
2022-11-30T14:45:04.576Z,117.30
2022-11-30T14:48:11.866Z,110.10
2022-11-30T14:51:18.396Z,117.90
2022-11-30T14:54:25.659Z,105.20
2022-11-30T14:57:32.649Z,111.10
2022-11-30T15:00:39.562Z,110.70
2022-11-30T15:03:46.879Z,104.10
2022-11-30T15:06:53.629Z,108.60
2022-11-30T15:10:00.288Z,107.80
2022-11-30T15:13:07.049Z,106.90
2022-11-30T15:16:14.001Z,112.70
2022-11-30T15:19:20.763Z,115.30
2022-11-30T15:22:27.422Z,116.20
2022-11-30T15:25:34.405Z,109.20
2022-11-30T15:28:41.142Z,105.10
2022-11-30T15:31:47.963Z,114.50
2022-11-30T15:34:56.758Z,110.10
2022-11-30T15:38:03.543Z,105.90
2022-11-30T15:41:10.917Z,111.80
2022-11-30T15:44:18.406Z,102.00
2022-11-30T15:47:25.067Z,99.40
2022-11-30T15:50:32.313Z,100.40
2022-11-30T15:53:39.516Z,99.70
2022-11-30T15:56:46.285Z,102.90
2022-11-30T15:59:53.565Z,97.80
2022-11-30T16:03:00.765Z,99.30
2022-11-30T16:06:07.877Z,96.80
2022-11-30T16:09:15.502Z,92.40
2022-11-30T16:12:22.459Z,103.90
2022-11-30T16:15:29.490Z,107.60
2022-11-30T16:18:36.900Z,99.10
2022-11-30T16:21:43.980Z,102.90
2022-11-30T16:24:51.108Z,103.70
2022-11-30T16:27:58.140Z,101.60
2022-11-30T16:31:05.681Z,99.20
2022-11-30T16:34:12.895Z,104.80
2022-11-30T16:37:20.063Z,108.80
2022-11-30T16:40:27.408Z,101.50
2022-11-30T16:43:34.281Z,99.60
2022-11-30T16:46:41.444Z,107.70
2022-11-30T16:49:48.950Z,109.40
2022-11-30T16:52:55.885Z,107.40
2022-11-30T16:56:03.356Z,102.30
2022-11-30T16:59:16.493Z,106.80
2022-11-30T17:02:12.964Z,107.90
2022-11-30T17:05:20.748Z,97.70
2022-11-30T17:08:27.907Z,104.40
2022-11-30T17:11:35.146Z,106.80
2022-11-30T17:14:42.678Z,122.90
2022-11-30T17:17:49.850Z,108.90
2022-11-30T17:20:56.908Z,97.30
2022-11-30T17:24:04.099Z,98.00
2022-11-30T17:27:13.119Z,105.10
2022-11-30T17:30:19.824Z,98.90
2022-11-30T17:33:26.551Z,103.90
2022-11-30T17:36:33.821Z,100.40
2022-11-30T17:39:40.781Z,100.50
2022-11-30T17:42:47.283Z,103.40
2022-11-30T17:45:54.759Z,103.60
2022-11-30T17:49:02.014Z,98.80
2022-11-30T17:52:08.583Z,100.30
2022-11-30T17:55:15.894Z,102.90
2022-11-30T17:58:22.467Z,101.70
2022-11-30T18:01:30.152Z,104.20
2022-11-30T18:04:37.455Z,104.90
2022-11-30T18:07:44.005Z,100.50
2022-11-30T18:10:51.204Z,106.20
2022-11-30T18:13:58.437Z,103.70
2022-11-30T18:17:05.010Z,103.00
2022-11-30T18:20:11.981Z,107.70
2022-11-30T18:23:18.407Z,110.90
2022-11-30T18:26:25.267Z,116.10
2022-11-30T18:29:32.457Z,115.40
2022-11-30T18:32:38.961Z,119.90
2022-11-30T18:35:46.297Z,122.20
2022-11-30T18:38:53.390Z,108.90
2022-11-30T18:41:59.850Z,112.90
2022-11-30T18:45:06.744Z,120.20
2022-11-30T18:48:13.825Z,121.30
2022-11-30T18:51:21.133Z,114.00
2022-11-30T18:54:30.396Z,137.60
2022-11-30T18:57:37.881Z,135.10
2022-11-30T19:00:44.915Z,117.80
2022-11-30T19:03:52.233Z,122.20
2022-11-30T19:07:00.543Z,109.50
2022-11-30T19:10:07.703Z,116.10
2022-11-30T19:13:14.563Z,112.60
2022-11-30T19:16:22.037Z,118.80
2022-11-30T19:19:28.620Z,110.70
2022-11-30T19:22:35.227Z,106.90
2022-11-30T19:25:42.246Z,115.80
2022-11-30T19:28:49.077Z,103.20
2022-11-30T19:31:55.527Z,100.50
2022-11-30T19:35:02.378Z,94.90
2022-11-30T19:38:08.845Z,92.60
2022-11-30T19:41:16.161Z,100.40
2022-11-30T19:44:22.999Z,95.30
2022-11-30T19:47:29.420Z,94.50
2022-11-30T19:50:36.630Z,90.50
2022-11-30T19:53:43.022Z,96.60
2022-11-30T19:56:49.541Z,96.70
2022-11-30T19:59:56.833Z,88.20
2022-11-30T20:03:03.407Z,87.50
2022-11-30T20:06:10.462Z,82.90
2022-11-30T20:09:17.273Z,87.70
2022-11-30T20:12:23.681Z,80.10
2022-11-30T20:15:30.563Z,86.20
2022-11-30T20:18:41.280Z,79.30
2022-11-30T20:21:38.605Z,78.20
2022-11-30T20:24:46.232Z,81.00
2022-11-30T20:27:53.148Z,82.60
2022-11-30T20:31:00.777Z,79.40
2022-11-30T20:34:07.666Z,83.30
2022-11-30T20:37:14.682Z,77.10
2022-11-30T20:40:21.528Z,76.80
2022-11-30T20:43:28.264Z,75.80
2022-11-30T20:46:35.500Z,77.00
2022-11-30T20:49:42.307Z,71.20
2022-11-30T20:52:49.249Z,76.90
2022-11-30T20:55:56.450Z,73.50
2022-11-30T20:59:03.361Z,75.30
2022-11-30T21:02:10.454Z,72.90
2022-11-30T21:05:18.129Z,75.00
2022-11-30T21:08:25.283Z,93.10
2022-11-30T21:11:33.303Z,77.30
2022-11-30T21:14:41.242Z,77.10
2022-11-30T21:17:48.265Z,73.70
2022-11-30T21:20:56.221Z,77.00
2022-11-30T21:24:04.116Z,72.80
2022-11-30T21:27:11.338Z,73.70
2022-11-30T21:30:19.265Z,73.30
2022-11-30T21:33:26.745Z,77.70
2022-11-30T21:36:34.355Z,79.00
2022-11-30T21:39:42.166Z,79.30
2022-11-30T21:42:49.292Z,78.40
2022-11-30T21:45:57.238Z,80.60
2022-11-30T21:49:04.877Z,80.50
2022-11-30T21:52:11.835Z,80.70
2022-11-30T21:55:19.672Z,78.70
2022-11-30T21:58:27.206Z,84.00
2022-11-30T22:01:34.653Z,86.10
2022-11-30T22:04:42.449Z,85.30
2022-11-30T22:07:49.606Z,89.00
2022-11-30T22:10:57.261Z,87.00
2022-11-30T22:14:04.800Z,87.60
2022-11-30T22:17:11.971Z,89.10
2022-11-30T22:20:19.893Z,93.00
2022-11-30T22:23:27.588Z,91.30
2022-11-30T22:26:35.613Z,93.90
2022-11-30T22:29:42.865Z,95.70
2022-11-30T22:32:50.415Z,103.50
2022-11-30T22:35:57.650Z,94.60
2022-11-30T22:39:04.481Z,102.50
2022-11-30T22:42:11.289Z,98.10
2022-11-30T22:45:18.416Z,97.40
2022-11-30T22:48:25.225Z,93.60
2022-11-30T22:51:32.057Z,94.70
2022-11-30T22:54:39.500Z,95.90
2022-11-30T22:57:45.936Z,106.10
2022-11-30T23:00:53.177Z,105.40
2022-11-30T23:04:00.328Z,107.20
2022-11-30T23:07:06.758Z,119.00
2022-11-30T23:10:13.768Z,113.40
2022-11-30T23:13:20.740Z,110.00
2022-11-30T23:16:27.762Z,114.90
2022-11-30T23:19:34.570Z,121.90
2022-11-30T23:22:41.321Z,118.90
2022-11-30T23:25:48.300Z,118.90
2022-11-30T23:28:55.161Z,126.00
2022-11-30T23:32:02.135Z,133.60
2022-11-30T23:35:09.001Z,132.90
2022-11-30T23:38:15.402Z,139.40
2022-11-30T23:41:22.603Z,142.90
2022-11-30T23:44:29.821Z,138.30
2022-11-30T23:47:36.263Z,131.20
2022-11-30T23:50:43.478Z,130.90
2022-11-30T23:53:50.228Z,139.00
2022-11-30T23:56:57.118Z,135.90
